createdAt,value
2023-02-04T00:02:20.466Z,99617.67
2023-02-04T00:04:52.171Z,99616.08
2023-02-04T00:07:20.741Z,99616.44
2023-02-04T00:09:50.125Z,99625.84
2023-02-04T00:12:18.662Z,99629.16
2023-02-04T00:14:47.214Z,99623.03
2023-02-04T00:17:15.894Z,99624.35
2023-02-04T00:19:44.806Z,99628.73
2023-02-04T00:22:13.229Z,99621.16
2023-02-04T00:24:43.385Z,99633.39
2023-02-04T00:27:12.093Z,99637.94
2023-02-04T00:29:40.623Z,99648.77
2023-02-04T00:32:09.485Z,99649.36
2023-02-04T00:34:38.334Z,99652.20
2023-02-04T00:37:07.289Z,99666.75
2023-02-04T00:39:35.881Z,99677.20
2023-02-04T00:42:05.829Z,99685.90
2023-02-04T00:44:36.442Z,99684.16
2023-02-04T00:47:05.842Z,99697.34
2023-02-04T00:49:35.026Z,99705.77
2023-02-04T00:52:03.885Z,99720.17
2023-02-04T00:54:32.397Z,99717.10
2023-02-04T00:57:00.917Z,99730.54
2023-02-04T00:59:29.333Z,99751.13
2023-02-04T01:01:57.927Z,99743.91
2023-02-04T01:04:28.136Z,99745.15
2023-02-04T01:06:56.626Z,99742.59
2023-02-04T01:09:28.354Z,99744.29
2023-02-04T01:11:59.265Z,99760.56
2023-02-04T01:14:28.315Z,99775.03
2023-02-04T01:16:59.254Z,99778.21
2023-02-04T01:19:27.766Z,99774.80
2023-02-04T01:21:58.922Z,99782.68
2023-02-04T01:24:27.466Z,99777.02
2023-02-04T01:26:58.111Z,99785.63
2023-02-04T01:29:26.804Z,99802.33
2023-02-04T01:32:01.874Z,99796.48
2023-02-04T01:34:31.743Z,99804.45
2023-02-04T01:37:00.290Z,99813.02
2023-02-04T01:39:30.182Z,99812.77
2023-02-04T01:42:01.113Z,99823.73
2023-02-04T01:44:32.818Z,99832.27
2023-02-04T01:47:01.627Z,99860.70
2023-02-04T01:49:30.516Z,99872.08
2023-02-04T01:52:00.750Z,99885.67
2023-02-04T01:54:29.989Z,99904.90
2023-02-04T01:57:03.439Z,99924.00
2023-02-04T01:59:34.154Z,99947.33
2023-02-04T02:04:53.681Z,99985.73
2023-02-04T02:07:24.821Z,99997.74
2023-02-04T02:09:53.651Z,100012.62
2023-02-04T02:12:22.808Z,100029.54
2023-02-04T02:14:56.469Z,100049.34
2023-02-04T02:17:28.500Z,100064.85
2023-02-04T02:20:00.464Z,100070.90
2023-02-04T02:25:58.873Z,100110.71
2023-02-04T02:28:30.878Z,100134.81
2023-02-04T02:31:02.677Z,100141.02
2023-02-04T02:33:34.057Z,100163.38
2023-02-04T02:36:02.939Z,100183.80
2023-02-04T02:38:31.577Z,100196.47
2023-02-04T02:41:00.409Z,100205.88
2023-02-04T02:43:30.279Z,100229.55
2023-02-04T02:46:01.569Z,100244.61
2023-02-04T02:48:30.294Z,100258.65
2023-02-04T02:50:58.907Z,100275.92
2023-02-04T02:53:30.044Z,100293.70
2023-02-04T02:55:58.750Z,100308.56
2023-02-04T02:58:59.488Z,100325.14
2023-02-04T03:01:28.913Z,100347.77
2023-02-04T03:04:00.105Z,100364.65
2023-02-04T03:06:28.851Z,100379.65
2023-02-04T03:08:57.693Z,100390.52
2023-02-04T03:11:29.772Z,100409.41
2023-02-04T03:14:03.828Z,100421.83
2023-02-04T03:16:36.839Z,100434.39
2023-02-04T03:19:07.757Z,100455.88
2023-02-04T03:21:36.862Z,100471.02
2023-02-04T03:24:06.180Z,100486.15
2023-02-04T03:26:35.262Z,100508.34
2023-02-04T03:29:09.053Z,100512.78
2023-02-04T03:31:41.109Z,100533.96
2023-02-04T03:34:12.910Z,100555.27
2023-02-04T03:36:44.614Z,100569.21
2023-02-04T03:39:13.329Z,100590.00
2023-02-04T03:41:41.832Z,100604.65
2023-02-04T03:44:10.286Z,100622.58
2023-02-04T03:46:38.713Z,100642.38
2023-02-04T03:49:07.221Z,100650.99
2023-02-04T03:51:36.246Z,100663.55
2023-02-04T03:54:04.856Z,100671.84
2023-02-04T03:56:33.321Z,100690.31
2023-02-04T03:59:01.945Z,100702.58
2023-02-04T04:01:30.827Z,100712.30
2023-02-04T04:03:59.525Z,100718.90
2023-02-04T04:06:28.509Z,100731.33
2023-02-04T04:08:56.968Z,100746.63
2023-02-04T04:11:25.392Z,100759.20
2023-02-04T04:13:53.916Z,100773.30
2023-02-04T04:16:22.567Z,100780.84
2023-02-04T04:18:50.967Z,100789.76
2023-02-04T04:21:19.274Z,100807.09
2023-02-04T04:23:47.662Z,100815.83
2023-02-04T04:26:17.396Z,100822.81
2023-02-04T04:28:45.781Z,100823.67
2023-02-04T04:31:14.490Z,100835.86
2023-02-04T04:33:42.940Z,100846.31
2023-02-04T04:36:11.338Z,100856.45
2023-02-04T04:38:39.854Z,100860.39
2023-02-04T04:41:08.315Z,100871.23
2023-02-04T04:43:36.730Z,100877.56
2023-02-04T04:46:05.274Z,100887.69
2023-02-04T04:48:33.832Z,100895.27
2023-02-04T04:51:02.263Z,100910.42
2023-02-04T04:53:30.627Z,100923.48
2023-02-04T04:55:59.202Z,100929.19
2023-02-04T04:58:27.588Z,100934.48
2023-02-04T05:00:56.062Z,100939.84
2023-02-04T05:03:24.728Z,100949.30
2023-02-04T05:05:53.127Z,100959.98
2023-02-04T05:08:21.520Z,100968.07
2023-02-04T05:10:49.946Z,100974.27
2023-02-04T05:13:18.397Z,100987.00
2023-02-04T05:15:46.795Z,100995.43
2023-02-04T05:18:15.258Z,101007.12
2023-02-04T05:20:43.758Z,101016.57
2023-02-04T05:23:12.195Z,101035.49
2023-02-04T05:25:40.807Z,101042.56
2023-02-04T05:28:09.317Z,101047.72
2023-02-04T05:30:37.872Z,101060.25
2023-02-04T05:33:06.289Z,101071.44
2023-02-04T05:35:34.645Z,101080.74
2023-02-04T05:38:03.194Z,101086.08
2023-02-04T05:40:31.945Z,101101.21
2023-02-04T05:43:00.868Z,101103.45
2023-02-04T05:45:29.298Z,101114.10
2023-02-04T05:47:57.848Z,101120.45
2023-02-04T05:50:26.387Z,101116.16
2023-02-04T05:52:54.810Z,101124.59
2023-02-04T05:55:23.156Z,101130.27
2023-02-04T05:57:51.559Z,101131.26
2023-02-04T06:00:20.715Z,101139.84
2023-02-04T06:02:49.076Z,101144.12
2023-02-04T06:05:18.235Z,101149.67
2023-02-04T06:07:50.364Z,101159.84
2023-02-04T06:10:19.084Z,101167.63
2023-02-04T06:12:48.806Z,101180.56
2023-02-04T06:15:19.197Z,101192.52
2023-02-04T06:17:47.781Z,101206.83
2023-02-04T06:20:20.886Z,101217.83
2023-02-04T06:22:51.817Z,101226.91
2023-02-04T06:25:22.321Z,101231.01
2023-02-04T06:27:50.804Z,101239.20
2023-02-04T06:30:20.281Z,101246.73
2023-02-04T06:32:53.569Z,101254.61
2023-02-04T06:35:21.979Z,101260.45
2023-02-04T06:37:52.157Z,101275.08
2023-02-04T06:40:22.209Z,101281.79
2023-02-04T06:42:52.354Z,101292.27
2023-02-04T06:45:22.526Z,101303.77
2023-02-04T06:47:52.785Z,101313.73
2023-02-04T06:50:21.218Z,101325.73
2023-02-04T06:52:56.492Z,101338.41
2023-02-04T06:55:27.795Z,101350.90
2023-02-04T06:57:57.661Z,101364.64
2023-02-04T07:00:26.117Z,101372.19
2023-02-04T07:02:55.650Z,101378.19
2023-02-04T07:05:29.408Z,101388.50
2023-02-04T07:08:00.010Z,101396.91
2023-02-04T07:10:28.584Z,101403.09
2023-02-04T07:12:58.961Z,101413.92
2023-02-04T07:15:30.028Z,101425.74
2023-02-04T07:18:00.255Z,101434.14
2023-02-04T07:20:28.655Z,101439.11
2023-02-04T07:22:59.955Z,101445.30
2023-02-04T07:25:30.311Z,101456.48
2023-02-04T07:28:06.097Z,101463.02
2023-02-04T07:30:38.825Z,101468.86
2023-02-04T07:33:07.379Z,101476.92
2023-02-04T07:35:38.170Z,101483.60
2023-02-04T07:38:08.631Z,101493.39
2023-02-04T07:40:37.661Z,101496.98
2023-02-04T07:43:07.322Z,101508.66
2023-02-04T07:45:42.495Z,101511.02
2023-02-04T07:48:13.085Z,101518.23
2023-02-04T07:50:41.788Z,101515.17
2023-02-04T07:53:20.974Z,101518.83
2023-02-04T07:55:50.200Z,101515.94
2023-02-04T07:58:18.737Z,101517.34
2023-02-04T08:00:47.222Z,101515.44
2023-02-04T08:03:18.187Z,101516.79
2023-02-04T08:05:47.803Z,101513.85
2023-02-04T08:08:16.499Z,101516.60
2023-02-04T08:10:45.050Z,101522.75
2023-02-04T08:13:16.015Z,101527.52
2023-02-04T08:15:44.918Z,101530.38
2023-02-04T08:18:18.758Z,101533.39
2023-02-04T08:20:51.737Z,101529.88
2023-02-04T08:23:20.424Z,101535.61
2023-02-04T08:25:49.085Z,101540.51
2023-02-04T08:28:18.232Z,101540.09
2023-02-04T08:30:46.846Z,101540.15
2023-02-04T08:33:15.464Z,101542.63
2023-02-04T08:35:43.887Z,101537.52
2023-02-04T08:38:12.345Z,101536.55
2023-02-04T08:40:41.070Z,101538.98
2023-02-04T08:43:11.223Z,101545.19
2023-02-04T08:45:41.270Z,101548.13
2023-02-04T08:48:09.709Z,101558.11
2023-02-04T08:50:39.148Z,101558.75
2023-02-04T08:53:07.626Z,101565.92
2023-02-04T08:55:35.968Z,101571.55
2023-02-04T08:58:04.315Z,101571.28
2023-02-04T09:00:32.997Z,101583.56
2023-02-04T09:03:01.717Z,101582.99
2023-02-04T09:05:30.114Z,101592.84
2023-02-04T09:07:59.560Z,101598.34
2023-02-04T09:10:27.962Z,101595.98
2023-02-04T09:12:56.453Z,101600.10
2023-02-04T09:15:25.248Z,101604.38
2023-02-04T09:17:55.695Z,101600.27
2023-02-04T09:20:24.392Z,101605.01
2023-02-04T09:22:52.697Z,101608.21
2023-02-04T09:25:21.066Z,101614.70
2023-02-04T09:27:49.390Z,101624.39
2023-02-04T09:30:18.119Z,101625.96
2023-02-04T09:32:46.577Z,101625.67
2023-02-04T09:35:14.998Z,101631.59
2023-02-04T09:37:43.352Z,101638.67
2023-02-04T09:40:17.408Z,101637.52
2023-02-04T09:42:48.816Z,101641.17
2023-02-04T09:45:22.021Z,101643.77
2023-02-04T09:47:52.551Z,101648.80
2023-02-04T09:50:25.415Z,101647.17
2023-02-04T09:52:59.360Z,101655.02
2023-02-04T09:55:38.218Z,101659.06
2023-02-04T09:58:18.191Z,101656.84
2023-02-04T10:01:28.747Z,101660.33
2023-02-04T10:04:01.909Z,101661.80
2023-02-04T10:06:30.737Z,101657.42
2023-02-04T10:08:59.621Z,101659.70
2023-02-04T10:11:34.253Z,101668.30
2023-02-04T10:14:02.643Z,101673.82
2023-02-04T10:16:34.920Z,101684.21
2023-02-04T10:19:11.946Z,101688.77
2023-02-04T10:21:42.263Z,101693.82
2023-02-04T10:24:17.731Z,101690.27
2023-02-04T10:26:48.485Z,101696.67
2023-02-04T10:29:25.934Z,101701.57
2023-02-04T10:31:55.998Z,101704.13
2023-02-04T10:34:39.599Z,101707.10
2023-02-04T10:37:22.835Z,101709.59
2023-02-04T10:39:52.286Z,101708.64
2023-02-04T10:42:30.565Z,101712.86
2023-02-04T10:45:01.773Z,101717.76
2023-02-04T10:47:31.615Z,101723.77
2023-02-04T10:50:19.510Z,101721.48
2023-02-04T10:52:55.555Z,101726.64
2023-02-04T10:55:24.721Z,101726.75
2023-02-04T10:57:57.099Z,101724.27
2023-02-04T11:00:26.348Z,101721.95
2023-02-04T11:03:32.620Z,101722.23
2023-02-04T11:06:01.820Z,101727.08
2023-02-04T11:08:36.886Z,101731.88
2023-02-04T11:11:16.678Z,101735.17
2023-02-04T11:13:52.085Z,101738.11
2023-02-04T11:16:27.561Z,101739.88
2023-02-04T11:19:14.674Z,101744.20
2023-02-04T11:21:46.066Z,101749.89
2023-02-04T11:24:15.434Z,101754.02
2023-02-04T11:26:50.079Z,101756.36
2023-02-04T11:29:38.079Z,101753.27
2023-02-04T11:32:37.837Z,101756.01
2023-02-04T11:35:20.565Z,101750.64
2023-02-04T11:37:50.229Z,101748.41
2023-02-04T11:40:28.030Z,101754.77
2023-02-04T11:43:16.125Z,101761.02
2023-02-04T11:45:44.623Z,101759.84
2023-02-04T11:48:20.952Z,101772.44
2023-02-04T11:51:03.464Z,101773.42
2023-02-04T11:53:34.230Z,101768.50
2023-02-04T11:56:02.598Z,101768.74
2023-02-04T11:58:33.083Z,101774.48
2023-02-04T12:01:01.412Z,101772.95
2023-02-04T12:03:34.412Z,101772.73
2023-02-04T12:06:03.553Z,101772.17
2023-02-04T12:08:36.244Z,101775.70
2023-02-04T12:11:11.300Z,101770.47
2023-02-04T12:13:50.321Z,101778.95
2023-02-04T12:16:20.902Z,101780.80
2023-02-04T12:18:51.389Z,101781.85
2023-02-04T12:21:19.795Z,101788.34
2023-02-04T12:23:48.198Z,101786.39
2023-02-04T12:26:16.595Z,101787.79
2023-02-04T12:28:44.931Z,101801.90
2023-02-04T12:31:13.400Z,101801.08
2023-02-04T12:33:43.958Z,101802.66
2023-02-04T12:36:12.605Z,101805.93
2023-02-04T12:38:41.293Z,101813.12
2023-02-04T12:41:10.269Z,101805.62
2023-02-04T12:43:38.925Z,101808.62
2023-02-04T12:46:07.392Z,101806.96
2023-02-04T12:48:35.843Z,101811.92
2023-02-04T12:51:04.694Z,101807.40
2023-02-04T12:53:33.765Z,101812.73
2023-02-04T12:56:02.187Z,101816.14
2023-02-04T12:58:30.583Z,101820.40
2023-02-04T13:00:59.340Z,101815.95
2023-02-04T13:03:28.069Z,101818.03
2023-02-04T13:05:56.387Z,101813.13
2023-02-04T13:08:24.820Z,101816.75
2023-02-04T13:10:53.652Z,101825.44
2023-02-04T13:13:23.058Z,101823.77
2023-02-04T13:15:51.499Z,101830.79
2023-02-04T13:18:20.008Z,101831.96
2023-02-04T13:20:48.330Z,101837.94
2023-02-04T13:23:16.692Z,101841.22
2023-02-04T13:25:45.396Z,101843.85
2023-02-04T13:28:14.149Z,101839.15
2023-02-04T13:30:42.770Z,101838.63
2023-02-04T13:33:11.129Z,101832.26
2023-02-04T13:35:39.488Z,101835.57
2023-02-04T13:38:08.123Z,101837.54
2023-02-04T13:40:36.567Z,101832.33
2023-02-04T13:43:04.928Z,101832.94
2023-02-04T13:45:33.719Z,101832.91
2023-02-04T13:48:02.341Z,101841.86
2023-02-04T13:50:31.089Z,101843.06
2023-02-04T13:52:59.690Z,101845.74
2023-02-04T13:55:27.973Z,101855.89
2023-02-04T13:57:56.404Z,101854.98
2023-02-04T14:00:24.745Z,101854.44
2023-02-04T14:02:53.209Z,101864.23
2023-02-04T14:05:21.652Z,101867.33
2023-02-04T14:07:50.024Z,101870.23
2023-02-04T14:10:18.704Z,101869.31
2023-02-04T14:12:47.001Z,101873.04
2023-02-04T14:15:17.657Z,101890.05
2023-02-04T14:17:45.988Z,101907.84
2023-02-04T14:20:14.412Z,101916.55
2023-02-04T14:22:42.806Z,101916.65
2023-02-04T14:25:11.561Z,101895.19
2023-02-04T14:27:42.570Z,101896.36
2023-02-04T14:30:29.210Z,101900.92
2023-02-04T14:32:58.313Z,101904.06
2023-02-04T14:35:27.181Z,101902.36
2023-02-04T14:37:55.530Z,101897.65
2023-02-04T14:40:25.051Z,101894.92
2023-02-04T14:42:53.416Z,101898.91
2023-02-04T14:45:21.822Z,101897.25
2023-02-04T14:47:52.719Z,101897.50
2023-02-04T14:50:26.951Z,101896.34
2023-02-04T14:52:56.935Z,101898.61
2023-02-04T14:55:27.240Z,101898.27
2023-02-04T14:57:55.629Z,101899.00
2023-02-04T15:00:24.661Z,101909.20
2023-02-04T15:02:53.422Z,101917.33
2023-02-04T15:05:22.026Z,101924.84
2023-02-04T15:07:50.397Z,101922.55
2023-02-04T15:10:19.002Z,101928.52
2023-02-04T15:12:47.692Z,101930.55
2023-02-04T15:15:16.151Z,101923.97
2023-02-04T15:17:44.489Z,101922.89
2023-02-04T15:20:13.738Z,101924.16
2023-02-04T15:22:42.936Z,101922.52
2023-02-04T15:25:13.159Z,101922.94
2023-02-04T15:27:41.613Z,101926.62
2023-02-04T15:30:10.946Z,101927.01
2023-02-04T15:32:40.319Z,101923.62
2023-02-04T15:35:09.512Z,101922.86
2023-02-04T15:37:38.022Z,101920.14
2023-02-04T15:40:08.779Z,101922.91
2023-02-04T15:42:37.218Z,101923.61
2023-02-04T15:45:06.558Z,101928.24
2023-02-04T15:47:34.969Z,101930.48
2023-02-04T15:50:06.535Z,101937.37
2023-02-04T15:52:34.952Z,101942.17
2023-02-04T15:55:04.311Z,101945.60
2023-02-04T15:57:32.726Z,101938.71
2023-02-04T16:00:01.232Z,101948.15
2023-02-04T16:02:29.828Z,101947.64
2023-02-04T16:04:58.728Z,101952.42
2023-02-04T16:07:27.120Z,101955.34
2023-02-04T16:09:55.571Z,101954.83
2023-02-04T16:12:24.042Z,101962.38
2023-02-04T16:14:53.358Z,101959.80
2023-02-04T16:17:22.240Z,101951.88
2023-02-04T16:19:51.666Z,101955.63
2023-02-04T16:22:21.411Z,101960.45
2023-02-04T16:24:52.946Z,101959.60
2023-02-04T16:27:21.838Z,101963.25
2023-02-04T16:29:50.933Z,101964.46
2023-02-04T16:32:19.866Z,101961.39
2023-02-04T16:34:53.704Z,101961.73
2023-02-04T16:37:22.902Z,101959.69
2023-02-04T16:39:52.170Z,101960.05
2023-02-04T16:42:20.767Z,101962.83
2023-02-04T16:44:51.542Z,101967.30
2023-02-04T16:47:23.471Z,101964.58
2023-02-04T16:49:52.238Z,101966.13
2023-02-04T16:52:31.901Z,101969.40
2023-02-04T16:55:05.997Z,101969.57
2023-02-04T16:57:35.982Z,101977.13
2023-02-04T17:00:15.943Z,101981.95
2023-02-04T17:02:57.035Z,101985.73
2023-02-04T17:05:25.951Z,101983.15
2023-02-04T17:07:55.418Z,101983.50
2023-02-04T17:11:00.974Z,101991.56
2023-02-04T17:13:30.191Z,101996.03
2023-02-04T17:16:01.658Z,101996.71
2023-02-04T17:18:34.612Z,101995.52
2023-02-04T17:21:04.819Z,101995.67
2023-02-04T17:23:35.494Z,101999.46
2023-02-04T17:26:07.255Z,102001.68
2023-02-04T17:28:37.288Z,102002.03
2023-02-04T17:31:06.294Z,102005.29
2023-02-04T17:33:35.618Z,102013.02
2023-02-04T17:36:05.347Z,102012.67
2023-02-04T17:38:36.847Z,102011.98
2023-02-04T17:41:05.819Z,102014.38
2023-02-04T17:43:34.456Z,102014.20
2023-02-04T17:46:03.292Z,102015.05
2023-02-04T17:48:32.071Z,102011.61
2023-02-04T17:51:00.518Z,102014.70
2023-02-04T17:53:29.045Z,102017.27
2023-02-04T17:55:57.441Z,102015.04
2023-02-04T17:58:29.756Z,102019.33
2023-02-04T18:00:59.386Z,102021.89
2023-02-04T18:03:29.062Z,102020.84
2023-02-04T18:05:57.837Z,102021.17
2023-02-04T18:08:38.227Z,102022.88
2023-02-04T18:11:20.386Z,102021.15
2023-02-04T18:13:49.068Z,102025.09
2023-02-04T18:16:34.358Z,102023.70
2023-02-04T18:19:19.305Z,102025.59
2023-02-04T18:21:49.692Z,102025.77
2023-02-04T18:24:30.475Z,102027.48
2023-02-04T18:27:28.360Z,102030.76
2023-02-04T18:29:59.173Z,102034.52
2023-02-04T18:32:40.216Z,102039.69
2023-02-04T18:35:40.484Z,102043.47
2023-02-04T18:38:23.793Z,102048.11
2023-02-04T18:41:17.924Z,102053.27
2023-02-04T18:44:02.466Z,102058.26
2023-02-04T18:46:42.348Z,102058.09
2023-02-04T18:49:33.258Z,102054.81
2023-02-04T18:52:24.405Z,102053.98
2023-02-04T18:54:59.028Z,102055.70
2023-02-04T18:57:39.749Z,102057.08
2023-02-04T19:00:19.986Z,102061.40
2023-02-04T19:02:53.987Z,102065.69
2023-02-04T19:05:48.969Z,102066.20
2023-02-04T19:08:25.814Z,102073.77
2023-02-04T19:10:58.088Z,102082.90
2023-02-04T19:13:41.870Z,102080.68
2023-02-04T19:16:33.888Z,102082.23
2023-02-04T19:19:25.683Z,102087.06
2023-02-04T19:21:58.835Z,102090.70
2023-02-04T19:24:29.764Z,102087.80
2023-02-04T19:27:01.750Z,102083.19
2023-02-04T19:29:42.083Z,102082.35
2023-02-04T19:32:45.475Z,102081.34
2023-02-04T19:35:23.477Z,102079.12
2023-02-04T19:38:40.614Z,102076.55
2023-02-04T19:41:33.549Z,102085.52
2023-02-04T19:44:30.263Z,102088.45
2023-02-04T19:47:18.604Z,102088.98
2023-02-04T19:49:47.960Z,102092.93
2023-02-04T19:52:34.809Z,102095.33
2023-02-04T19:55:19.598Z,102096.54
2023-02-04T19:57:54.053Z,102101.52
2023-02-04T20:00:36.402Z,102098.08
2023-02-04T20:03:16.970Z,102095.16
2023-02-04T20:05:47.888Z,102098.94
2023-02-04T20:08:54.754Z,102102.38
2023-02-04T20:11:35.290Z,102106.16
2023-02-04T20:14:15.856Z,102106.85
2023-02-04T20:17:03.353Z,102106.48
2023-02-04T20:19:31.694Z,102110.09
2023-02-04T20:22:18.746Z,102112.66
2023-02-04T20:24:53.538Z,102115.90
2023-02-04T20:27:32.942Z,102120.54
2023-02-04T20:30:26.203Z,102116.74
2023-02-04T20:32:58.929Z,102124.83
2023-02-04T20:35:31.996Z,102131.17
2023-02-04T20:38:11.379Z,102130.83
2023-02-04T20:40:40.061Z,102132.38
2023-02-04T20:43:20.262Z,102139.59
2023-02-04T20:46:05.150Z,102145.44
2023-02-04T20:48:38.308Z,102145.80
2023-02-04T20:51:26.673Z,102147.70
2023-02-04T20:54:02.063Z,102148.06
2023-02-04T20:56:40.159Z,102148.06
2023-02-04T20:59:14.427Z,102151.34
2023-02-04T21:01:50.239Z,102154.95
2023-02-04T21:04:23.081Z,102154.09
2023-02-04T21:07:00.885Z,102151.86
2023-02-04T21:09:32.870Z,102148.61
2023-02-04T21:12:02.687Z,102153.92
2023-02-04T21:14:31.043Z,102153.06
2023-02-04T21:16:59.668Z,102153.76
2023-02-04T21:19:28.232Z,102152.57
2023-02-04T21:21:57.849Z,102155.50
2023-02-04T21:24:28.319Z,102151.04
2023-02-04T21:26:56.935Z,102157.04
2023-02-04T21:29:26.125Z,102156.70
2023-02-04T21:31:54.999Z,102155.32
2023-02-04T21:34:23.360Z,102153.42
2023-02-04T21:36:51.781Z,102161.14
2023-02-04T21:39:20.834Z,102165.59
2023-02-04T21:42:09.157Z,102169.02
2023-02-04T21:44:38.294Z,102179.31
2023-02-04T21:47:06.831Z,102182.05
2023-02-04T21:49:36.868Z,102183.92
2023-02-04T21:52:06.590Z,102181.69
2023-02-04T21:54:35.040Z,102184.61
2023-02-04T21:57:04.522Z,102190.09
2023-02-04T21:59:33.798Z,102191.97
2023-02-04T22:02:02.182Z,102191.79
2023-02-04T22:04:30.640Z,102196.42
2023-02-04T22:06:59.209Z,102199.52
2023-02-04T22:09:27.680Z,102201.58
2023-02-04T22:11:56.338Z,102205.52
2023-02-04T22:14:24.712Z,102211.70
2023-02-04T22:16:53.085Z,102214.09
2023-02-04T22:19:21.503Z,102214.09
2023-02-04T22:21:49.906Z,102216.31
2023-02-04T22:24:18.431Z,102213.58
2023-02-04T22:26:46.866Z,102214.93
2023-02-04T22:29:19.783Z,102216.66
2023-02-04T22:31:48.135Z,102219.77
2023-02-04T22:34:16.738Z,102219.59
2023-02-04T22:36:45.134Z,102218.40
2023-02-04T22:39:13.699Z,102224.40
2023-02-04T22:41:42.035Z,102222.17
2023-02-04T22:44:10.438Z,102212.57
2023-02-04T22:46:38.809Z,102213.09
2023-02-04T22:49:07.564Z,102212.75
2023-02-04T22:51:36.012Z,102210.01
2023-02-04T22:54:04.827Z,102213.09
2023-02-04T22:56:34.944Z,102212.58
2023-02-04T22:59:03.471Z,102211.73
2023-02-04T23:01:34.574Z,102217.56
2023-02-04T23:04:03.096Z,102211.90
2023-02-04T23:06:31.770Z,102215.17
2023-02-04T23:09:01.060Z,102213.98
2023-02-04T23:11:29.627Z,102216.72
2023-02-04T23:13:58.025Z,102213.81
2023-02-04T23:16:26.666Z,102212.44
2023-02-04T23:18:55.266Z,102209.52
2023-02-04T23:21:23.692Z,102211.58
2023-02-04T23:23:52.647Z,102209.17
2023-02-04T23:26:21.766Z,102207.63
2023-02-04T23:28:50.155Z,102210.20
2023-02-04T23:31:18.600Z,102205.39
2023-02-04T23:33:46.985Z,102207.44
2023-02-04T23:36:15.393Z,102204.69
2023-02-04T23:38:43.784Z,102205.70
2023-02-04T23:41:12.160Z,102206.89
2023-02-04T23:43:40.561Z,102209.29
2023-02-04T23:46:09.284Z,102205.34
2023-02-04T23:48:37.665Z,102205.52
2023-02-04T23:51:06.204Z,102203.45
2023-02-04T23:53:34.620Z,102204.30
2023-02-04T23:56:03.238Z,102208.39
2023-02-04T23:58:31.622Z,102210.09
